logo
Search for airport 
image banner adimage banner adimage banner ad
image banner ad

YPVD - Plevna Downs

Located in Eromanga, Australia

ICAO - YPVD, IATA -

Data provided by Airmate  

General information

Coordinates: S26°39'0" E142°35'23"
Elevation is 456 feet MSL.
Magnetic variation is 8° East
View others Airports in Queensland

Operational data

Special qualification required
Current time UTC:
Current local time:
Weather at : - ( 0 km )
METAR: KAFP 180334Z AUTO 15007KT 10SM CLR 25/19 A3018 RMK AO2 T02500185
View NOTAMs / SUP AIP / TFR affecting this airport [VIEW]
Communications frequencies: [VIEW]

Runways:

RWY identifierQFULength (ft)Width (ft)SurfaceLDA (ft)
1131160C
2931160C
22224°421593DIRT
0444°421593DIRT

Airport contact information

Address: Eromanga Australia

Satellite view of YPVD